Ashton, Idaho
Current Conditions -  °F | °C
As of 7:53 AM on Monday 24 Nov 2014 (Local Time) from KRXE Reporting Station
Clear Clear  
Wind Chill: 24°   Ceiling: Unl
Heat Index: 24°   Visibility: 10mi
Dew Point: 21°   Wind: 3mph
Humidity: 88%   Direction: NA
Pressure: 30.2"   Gusts: NA
Location:  44.07°N, 111.45°W
Report Text: KRXE 241453Z AUTO VRB03KT 10SM CLR M04/M06 A3020 RMK AO2 SLP260 T10441061 53026
Loading
Personal Weather Stations






























Interactive Weather Map New forecast layout! Learn more

10-Day Weather Forecast

Advertisements
Track Severe Weather on mobile